Sant Julià de Vilatorta





Hora UTC 13:25
Temperatura 12.1 ºC
Humitat 60.8 %
Pressió 1022.8 hPa
Pluja 0.0 mm
Velocitat vent 12.8 km/h
Direcció vent NE
Radiació solar 367.6 W/m²

Dades diàries 2021-03-01



Hora UTC (hivern +1h; estiu +2h)
Temperatura (ºC) Humitat (%) Pressió (hPa) Velocitat vent (km/h) Precipitació (mm) Radiació solar (W/m²)
Hora UTC Aire Humitat Pressió Vel. Dir. Vel. Max Dir. Intent. màx 5 min. Rad. Sol.
00:05 5.6 87.7 1023.5 2.7 E 2.7 ESE 0.0 1.1
00:10 5.8 87.6 1023.4 3.5 ENE 8.4 NNE 0.0 1.1
00:15 6.3 88.2 1023.4 3.8 ENE 10.4 NNE 0.0 1.2
00:20 6.8 85.8 1023.4 3.0 ENE 6.5 NNE 0.0 1.0
00:25 7.1 84.0 1023.4 4.8 ENE 10.6 E 0.0 0.9
00:30 7.4 82.9 1023.4 4.4 NE 13.8 ENE 0.0 0.8
00:35 7.5 82.9 1023.3 4.9 NE 11.3 ENE 0.0 0.5
00:40 7.6 82.9 1023.4 4.6 NE 12.5 NE 0.0 0.3
00:45 7.7 82.7 1023.4 5.7 NE 16.6 NE 0.0 0.2
00:50 7.7 82.9 1023.5 5.7 NE 10.8 NE 0.0 0.0
00:55 7.6 83.1 1023.5 3.7 NE 7.1 NE 0.0 0.0
01:00 7.6 83.0 1023.5 3.2 ENE 6.5 NE 0.0 0.0
01:05 7.6 82.7 1023.5 4.2 ENE 8.2 E 0.0 0.1
01:10 7.6 82.3 1023.4 4.3 NE 9.7 NE 0.0 0.0
01:15 7.5 82.3 1023.4 2.6 NE 5.9 NE 0.0 0.0
01:20 7.4 82.7 1023.4 1.9 ENE 4.4 ENE 0.0 0.0
01:25 7.3 82.8 1023.4 2.4 NNE 5.2 NE 0.0 0.0
01:30 7.2 83.4 1023.4 2.3 NE 5.2 NE 0.0 0.2
01:35 7.2 83.6 1023.4 2.6 NNE 5.1 NE 0.0 0.3
01:40 7.1 83.8 1023.4 1.5 NNE 3.3 ENE 0.0 0.0
01:45 7.0 83.9 1023.5 1.6 NNE 3.1 ENE 0.0 0.2
01:50 6.9 84.3 1023.5 2.2 NE 4.0 NE 0.0 0.3
01:55 6.9 84.3 1023.5 2.1 ENE 3.7 NE 0.0 0.2
02:00 6.8 84.9 1023.5 2.5 NNE 5.2 NNE 0.0 0.0
02:05 6.8 85.3 1023.5 2.0 ENE 5.3 NE 0.0 0.2
02:10 6.7 85.5 1023.4 2.3 ENE 5.7 ENE 0.0 0.4
02:15 6.8 85.2 1023.4 3.1 NE 6.3 N 0.0 0.3
02:20 6.8 84.4 1023.4 2.1 NNE 4.1 NE 0.0 0.4
02:25 6.9 83.4 1023.4 2.1 E 6.7 ENE 0.0 0.6
02:30 7.0 83.1 1023.4 2.5 NNE 4.1 NNE 0.0 0.3
02:35 6.9 83.6 1023.5 3.2 NNE 4.9 N 0.0 0.4
02:40 6.9 83.3 1023.5 2.5 NE 4.5 NNE 0.0 0.1
02:45 6.9 83.6 1023.4 1.9 ENE 5.0 NNE 0.0 0.0
02:50 6.7 84.8 1023.4 3.3 NNE 5.3 NNE 0.0 0.0
02:55 6.6 85.6 1023.4 2.6 NNE 5.1 NE 0.0 0.0
03:00 6.5 85.9 1023.3 3.0 NNE 5.5 NNE 0.0 0.0
03:05 6.4 86.2 1023.4 3.2 NNE 6.3 NE 0.0 0.0
03:10 6.2 86.8 1023.4 3.0 NNE 5.3 NNE 0.0 0.3
03:15 6.1 87.6 1023.4 3.0 NNE 5.7 NNE 0.0 0.1
03:20 6.2 87.9 1023.4 2.8 NE 7.5 NE 0.0 0.2
03:25 6.2 87.8 1023.4 2.5 NNE 5.1 NE 0.0 0.2
03:30 6.1 87.8 1023.3 3.2 NNE 7.6 N 0.0 0.0
03:35 6.2 87.8 1023.3 4.4 NE 7.9 NNE 0.0 0.0
03:40 6.3 87.1 1023.4 4.4 NE 8.4 ENE 0.0 0.0
03:45 6.3 87.2 1023.4 3.7 NE 7.2 NE 0.0 0.4
03:50 6.2 87.3 1023.4 3.9 NNE 9.6 NE 0.0 0.5
03:55 6.3 87.6 1023.4 3.6 NE 7.9 NE 0.0 0.6
04:00 6.3 86.7 1023.4 3.1 NNE 8.6 NNW 0.0 0.2
04:05 5.7 86.5 1023.4 4.7 NNE 8.4 NNW 0.0 0.0
04:10 5.4 88.5 1023.4 1.5 NNE 3.8 NNW 0.0 0.0
04:15 5.3 88.9 1023.4 2.7 N 5.7 NNW 0.0 0.0
04:20 5.1 89.8 1023.4 1.7 NNE 6.4 NE 0.0 0.0
04:25 5.2 90.3 1023.5 2.6 NNE 5.4 NNE 0.0 0.1
04:30 5.2 90.4 1023.5 3.7 N 5.5 N 0.0 0.0
04:35 5.1 89.8 1023.5 4.1 NNW 6.3 NNW 0.0 0.0
04:40 5.0 90.0 1023.4 5.1 N 7.9 NNE 0.0 0.0
04:45 4.8 89.9 1023.4 4.9 N 7.1 NNE 0.0 0.0
04:50 4.6 90.5 1023.4 3.9 NNE 5.7 N 0.0 0.0
04:55 4.5 91.0 1023.4 4.7 NNE 8.3 NNE 0.0 0.0
05:00 4.4 91.5 1023.4 6.2 NNE 10.3 NNE 0.0 0.2
05:05 4.5 91.3 1023.4 3.1 NE 5.1 NE 0.0 0.0
05:10 4.4 91.5 1023.5 3.8 NNE 6.0 NNW 0.0 0.0
05:15 4.3 91.2 1023.5 3.0 NNW 5.1 NNW 0.0 0.0
05:20 4.1 91.3 1023.4 5.4 N 9.0 NNW 0.0 0.0
05:25 4.1 91.9 1023.4 6.0 N 9.3 NNE 0.0 0.1
05:30 4.1 92.1 1023.4 5.8 NNE 9.5 NNE 0.0 0.1
05:35 4.1 90.8 1023.4 3.5 NNE 6.6 NNE 0.0 0.0
05:40 4.0 89.8 1023.4 2.5 NE 6.1 NNE 0.0 0.0
05:45 4.0 90.0 1023.5 3.6 NNE 8.7 NE 0.0 0.2
05:50 4.0 89.7 1023.5 2.5 NNE 6.3 NNE 0.0 0.3
05:55 4.0 89.4 1023.5 3.6 N 7.5 NNW 0.0 0.6
06:00 4.1 88.6 1023.5 1.7 NNW 5.5 NNW 0.0 0.3
06:05 4.1 88.6 1023.5 1.4 SSE 3.6 S 0.0 0.3
06:10 4.2 88.5 1023.5 3.1 S 4.8 SSE 0.0 0.2
06:15 4.3 88.1 1023.4 1.0 S 2.6 SW 0.0 0.1
06:20 4.3 87.8 1023.4 1.8 SW 3.0 SW 0.0 0.3
06:25 4.2 87.5 1023.5 1.6 W 4.1 NW 0.0 1.4
06:30 4.1 87.9 1023.5 1.1 E 2.4 SSE 0.0 3.0
06:35 4.1 88.6 1023.5 1.5 SE 3.0 SSE 0.0 6.1
06:40 4.0 88.9 1023.5 1.8 SSW 3.2 SE 0.0 9.4
06:45 4.0 89.8 1023.6 2.2 SSW 2.8 SSW 0.0 13.2
06:50 4.1 90.8 1023.6 1.9 S 2.6 SSW 0.0 15.1
06:55 4.1 90.9 1023.7 1.5 S 3.5 SSE 0.0 15.5
07:00 4.2 90.4 1023.8 2.0 SSW 2.9 SSW 0.0 15.6
07:05 4.3 90.2 1023.8 1.4 SSW 2.8 WSW 0.0 22.0
07:10 4.4 89.9 1023.8 0.8 SSE 1.7 ENE 0.0 25.9
07:15 4.5 89.0 1023.9 1.7 SW 3.5 SW 0.0 28.8
07:20 4.6 88.5 1024.0 1.3 W 2.7 W 0.0 38.2
07:25 4.6 87.8 1024.0 1.3 WNW 2.7 WNW 0.0 46.7
07:30 4.6 87.5 1024.0 1.5 W 3.0 WNW 0.0 57.2
07:35 4.7 87.1 1024.0 2.0 NW 3.3 NNW 0.0 59.8
07:40 4.8 87.1 1024.0 1.6 WSW 3.3 WSW 0.0 64.2
07:45 4.9 86.4 1024.0 1.6 NNW 3.1 WNW 0.0 80.8
07:50 5.0 85.4 1024.0 2.7 NW 4.9 NNW 0.0 90.2
07:55 5.0 84.6 1024.0 2.0 NNW 3.6 NNW 0.0 91.5
08:00 5.0 84.4 1023.9 4.3 N 5.8 N 0.0 96.0
08:05 5.1 84.5 1023.9 3.0 N 5.7 NNW 0.0 108.1
08:10 5.3 84.7 1023.9 4.2 NNW 6.5 NNW 0.0 116.6
08:15 5.3 84.3 1023.8 3.6 NNW 5.3 NNW 0.0 120.3
08:20 5.4 84.1 1023.8 5.2 NNW 7.4 NNW 0.0 129.9
08:25 5.4 83.4 1023.8 6.4 N 9.3 N 0.0 132.4
08:30 5.3 83.6 1023.9 4.5 N 7.6 NW 0.0 176.2
08:35 5.6 83.4 1023.9 4.9 NNW 7.7 N 0.0 154.3
08:40 5.7 82.5 1023.9 6.4 NNW 9.4 NNW 0.0 138.9
08:45 5.7 82.4 1023.9 5.7 NNW 9.9 N 0.0 135.9
08:50 5.8 82.4 1023.9 5.6 N 8.8 N 0.0 126.1
08:55 5.8 82.6 1023.9 6.2 NNW 9.3 NNW 0.0 128.1
09:00 5.9 82.1 1023.9 4.2 NNW 8.0 NW 0.0 144.8
09:05 6.0 81.3 1024.0 4.2 NNW 6.4 NNW 0.0 191.1
09:10 6.2 80.5 1023.9 6.3 NNW 8.4 NNW 0.0 198.7
09:15 6.3 80.8 1023.9 5.3 NNW 8.0 NNW 0.0 174.7
09:20 6.6 81.0 1023.9 2.9 NW 5.8 WNW 0.0 176.6
09:25 6.9 79.9 1023.9 4.4 NNW 6.7 NNW 0.0 183.6
09:30 7.3 80.2 1023.9 4.0 NNW 7.2 NNW 0.0 208.5
09:35 7.7 78.7 1023.8 4.7 N 7.6 N 0.0 214.6
09:40 8.0 78.9 1023.8 7.8 NNE 14.0 NNE 0.0 218.2
09:45 8.5 78.3 1023.8 7.0 NNE 17.2 NE 0.0 225.8
09:50 9.1 76.9 1023.8 8.3 NE 16.9 NNE 0.0 233.9
09:55 9.3 76.1 1023.8 8.5 NE 17.2 ENE 0.0 183.9
10:00 9.3 76.2 1023.8 7.8 NE 17.2 NE 0.0 156.7
10:05 9.3 76.1 1023.9 6.0 NE 13.1 E 0.0 174.6
10:10 9.4 75.4 1023.9 7.2 ENE 16.3 NE 0.0 240.8
10:15 9.6 74.6 1023.8 8.9 ENE 17.1 NE 0.0 301.1
10:20 9.8 73.6 1023.8 7.1 ENE 16.1 ENE 0.0 314.4
10:25 9.9 73.0 1023.8 6.6 E 16.1 NE 0.0 402.7
10:30 10.2 72.4 1023.8 5.6 E 11.2 ENE 0.0 332.8
10:35 10.4 70.7 1023.9 6.3 E 15.6 ENE 0.0 343.8
10:40 10.4 70.5 1023.9 4.7 ENE 15.1 E 0.0 285.2
10:45 10.3 71.6 1023.8 8.4 NE 17.3 NE 0.0 292.8
10:50 10.2 72.2 1023.9 7.2 ENE 21.3 NNE 0.0 245.2
10:55 10.2 71.5 1023.9 6.4 E 15.0 ESE 0.0 326.6
11:00 10.3 71.2 1023.8 5.0 NE 14.4 NNE 0.0 452.2
11:05 10.6 71.6 1023.8 5.4 NNE 12.6 NE 0.0 429.4
11:10 10.7 69.6 1023.8 8.0 NE 17.1 NE 0.0 405.5
11:15 10.5 69.4 1023.8 9.2 NE 17.5 ENE 0.0 353.3
11:20 10.5 70.8 1023.7 4.4 ENE 13.5 NE 0.0 315.6
11:25 10.5 69.4 1023.7 7.8 NE 19.1 NNE 0.0 335.6
11:30 10.8 69.9 1023.6 8.3 NE 15.6 ENE 0.0 512.1
11:35 10.8 68.8 1023.5 7.2 NE 18.9 ENE 0.0 341.6
11:40 11.0 68.2 1023.5 5.8 ENE 13.9 ENE 0.0 422.4
11:45 11.1 66.9 1023.5 8.0 NE 16.7 ENE 0.0 375.0
11:50 11.1 66.9 1023.4 3.9 ENE 10.6 ESE 0.0 419.2
11:55 11.4 65.4 1023.4 5.1 ESE 11.8 E 0.0 470.4
12:00 11.7 62.0 1023.3 7.9 SSE 17.2 SE 0.0 486.5
12:05 11.6 64.6 1023.4 5.7 NE 12.3 NE 0.0 508.8
12:10 11.6 64.2 1023.3 5.8 NE 13.8 NNE 0.0 341.8
12:15 11.6 64.6 1023.3 5.3 ENE 11.3 ESE 0.0 400.1
12:20 11.7 64.7 1023.2 5.9 NE 13.5 NE 0.0 566.1
12:25 12.0 65.0 1023.1 6.2 ENE 14.5 NNE 0.0 802.0
12:30 12.6 62.3 1023.0 7.5 ENE 20.9 NE 0.0 683.5
12:35 12.1 63.5 1023.0 9.3 NE 21.1 NE 0.0 475.6
12:40 11.8 64.5 1023.0 9.5 NE 18.1 NE 0.0 551.7
12:45 11.9 64.0 1023.0 9.5 NE 18.9 NE 0.0 442.9
12:50 11.7 65.0 1023.0 9.5 NE 17.5 E 0.0 320.8
12:55 11.6 64.9 1022.9 10.1 NE 19.4 NE 0.0 298.0
13:00 11.4 65.2 1022.9 8.4 ENE 18.6 NE 0.0 318.2
13:05 11.7 65.1 1022.9 5.6 E 13.6 NNE 0.0 382.4
13:10 11.8 65.2 1022.8 8.1 NE 17.5 NE 0.0 492.3
13:15 12.1 64.4 1022.8 10.1 NE 25.3 NE 0.0 623.7
13:20 12.2 62.6 1022.8 12.4 NE 24.8 NE 0.0 702.3
13:25 12.1 60.8 1022.8 12.8 NE 25.7 NE 0.0 367.6
Màxima 12.8 92.1 1024.0 12.8 NE 25.7 NE 0.0 802.0
Mínima 3.9 60.8 1022.8
Total 0.0